Time;durP1;ratioP1;P1;durP2;ratioP2;P2;SDS_P1;SDS_P2;PMS_P1;PMS_P2;Temp;Humidity;BMP_temperature;BMP_pressure;BME280_temperature;BME280_humidity;BME280_pressure;Samples;Min_cycle;Max_cycle;Signal;HPM_P1;HPM_P2
2021/10/21 00:00:59;;;;;;;;;;;16.20;99.90;;;;;;6119363;23;19905;-79
2021/10/21 00:03:25;;;;;;;;;;;16.20;99.90;;;;;;6145500;23;20179;-79
2021/10/21 00:05:51;;;;;;;;;;;16.20;99.90;;;;;;6145372;23;19920;-79
2021/10/21 00:08:17;;;;;;;;;;;16.10;99.90;;;;;;6145825;23;19940;-78
2021/10/21 00:10:45;;;;;;;;;;;16.10;99.90;;;;;;6133545;23;19905;-78
2021/10/21 00:13:11;;;;;;;;;;;16.10;99.90;;;;;;6129019;23;20187;-78
2021/10/21 00:15:37;;;;;;;;;;;16.10;99.90;;;;;;6128962;23;19916;-78
2021/10/21 00:18:03;;;;;;;;;;;16.10;99.90;;;;;;6128148;23;19905;-77
2021/10/21 00:20:30;;;;;;;;;;;16.00;99.90;;;;;;6128939;23;19905;-78
2021/10/21 00:22:56;;;;;;;;;;;16.00;99.90;;;;;;6127969;23;20405;-79
2021/10/21 00:25:22;;;;;;;;;;;16.00;99.90;;;;;;6128071;23;19960;-78
2021/10/21 00:27:48;;;;;;;;;;;15.90;99.90;;;;;;6128545;23;19971;-78
2021/10/21 00:30:14;;;;;;;;;;;16.00;99.90;;;;;;6134422;23;19909;-79
2021/10/21 00:32:40;;;;;;;;;;;16.00;99.90;;;;;;6139271;23;20328;-81
2021/10/21 00:35:05;;;;;;;;;;;16.00;99.90;;;;;;6139711;23;19940;-79
2021/10/21 00:37:31;;;;;;;;;;;15.90;99.90;;;;;;6139867;23;19933;-79
2021/10/21 00:40:05;;;;;;;;;;;15.90;99.90;;;;;;6140242;23;19909;-79
2021/10/21 00:43:09;;;;;;;;;;;16.00;99.90;;;;;;6141050;23;19916;-79
2021/10/21 00:45:34;;;;;;;;;;;16.00;99.90;;;;;;6066167;23;19938;-79
2021/10/21 00:48:00;;;;;;;;;;;16.00;99.90;;;;;;6137553;23;20239;-80
2021/10/21 00:50:26;;;;;;;;;;;16.00;99.90;;;;;;6137549;23;19909;-78
2021/10/21 00:52:52;;;;;;;;;;;15.90;99.90;;;;;;6137315;23;19905;-77
2021/10/21 00:55:18;;;;;;;;;;;15.90;99.90;;;;;;6111332;23;19905;-78
2021/10/21 00:57:43;;;;;;;;;;;15.90;99.90;;;;;;6110168;23;19953;-78
2021/10/21 01:00:09;;;;;;;;;;;15.90;99.90;;;;;;6134498;23;19949;-78
2021/10/21 01:02:35;;;;;;;;;;;15.90;99.90;;;;;;6110239;23;19931;-80
2021/10/21 01:05:01;;;;;;;;;;;15.90;99.90;;;;;;6137298;23;19937;-78
2021/10/21 01:07:28;;;;;;;;;;;15.90;99.90;;;;;;6136792;23;19970;-78
2021/10/21 01:09:54;;;;;;;;;;;16.00;99.90;;;;;;6136134;23;19916;-78
2021/10/21 01:12:20;;;;;;;;;;;15.90;99.90;;;;;;6110740;23;19905;-78
2021/10/21 01:14:46;;;;;;;;;;;15.90;99.90;;;;;;6136329;23;20322;-79
2021/10/21 01:17:16;;;;;;;;;;;15.90;99.90;;;;;;6136959;23;19909;-78
2021/10/21 01:19:42;;;;;;;;;;;15.90;99.90;;;;;;6136297;23;19936;-79
2021/10/21 01:22:08;;;;;;;;;;;15.90;99.90;;;;;;6138011;23;19998;-78
2021/10/21 01:24:37;;;;;;;;;;;15.90;99.90;;;;;;6136963;23;19966;-78
2021/10/21 01:27:03;;;;;;;;;;;15.90;99.90;;;;;;6137977;23;19955;-79
2021/10/21 01:29:29;;;;;;;;;;;15.90;99.90;;;;;;6135642;23;19905;-79
2021/10/21 01:31:55;;;;;;;;;;;15.90;99.90;;;;;;6111299;23;20036;-78
2021/10/21 01:34:20;;;;;;;;;;;15.90;99.90;;;;;;6111575;23;19909;-78
2021/10/21 01:36:51;;;;;;;;;;;15.90;99.90;;;;;;6112628;23;19917;-81
2021/10/21 01:39:16;;;;;;;;;;;15.90;99.90;;;;;;6110064;23;19940;-79
2021/10/21 01:41:42;;;;;;;;;;;16.00;99.90;;;;;;6136564;23;19905;-78
2021/10/21 01:44:08;;;;;;;;;;;16.00;99.90;;;;;;6135856;23;19944;-78
2021/10/21 01:46:34;;;;;;;;;;;15.90;99.90;;;;;;6109549;23;19911;-79
2021/10/21 01:48:59;;;;;;;;;;;15.90;99.90;;;;;;6109595;23;19932;-80
2021/10/21 01:51:25;;;;;;;;;;;15.90;99.90;;;;;;6110307;23;19909;-79
2021/10/21 01:53:54;;;;;;;;;;;15.90;99.90;;;;;;6135112;23;20236;-78
2021/10/21 01:56:20;;;;;;;;;;;15.90;99.90;;;;;;6138569;23;19912;-78
2021/10/21 01:58:45;;;;;;;;;;;15.90;99.90;;;;;;6138405;23;20008;-79
2021/10/21 02:01:11;;;;;;;;;;;15.80;99.90;;;;;;6137163;23;19929;-79
2021/10/21 02:03:37;;;;;;;;;;;15.80;99.90;;;;;;6137930;23;19909;-80
2021/10/21 02:06:03;;;;;;;;;;;15.70;99.90;;;;;;6134422;23;19912;-80
2021/10/21 02:08:29;;;;;;;;;;;15.70;99.90;;;;;;6136893;23;19909;-79
2021/10/21 02:10:54;;;;;;;;;;;15.70;99.90;;;;;;6137341;23;19920;-79
2021/10/21 02:13:20;;;;;;;;;;;15.60;99.90;;;;;;6111546;23;19905;-79
2021/10/21 02:15:46;;;;;;;;;;;15.60;99.90;;;;;;6135493;23;20304;-80
2021/10/21 02:18:11;;;;;;;;;;;15.60;99.90;;;;;;6136450;23;19905;-79
2021/10/21 02:20:46;;;;;;;;;;;15.60;99.90;;;;;;6136434;23;19905;-79
2021/10/21 02:23:12;;;;;;;;;;;15.50;99.90;;;;;;6137248;23;19905;-79
2021/10/21 02:25:37;;;;;;;;;;;15.40;99.90;;;;;;6137793;23;20512;-79
2021/10/21 02:28:03;;;;;;;;;;;15.40;99.90;;;;;;6139573;23;19913;-78
2021/10/21 02:30:29;;;;;;;;;;;15.40;99.90;;;;;;6113104;23;20210;-79
2021/10/21 02:32:54;;;;;;;;;;;15.50;99.90;;;;;;6136912;23;19905;-79
2021/10/21 02:35:22;;;;;;;;;;;15.50;99.90;;;;;;6135064;23;19991;-79
2021/10/21 02:37:47;;;;;;;;;;;15.40;99.90;;;;;;6135765;23;19949;-80
2021/10/21 02:40:13;;;;;;;;;;;15.40;99.90;;;;;;6136905;23;19912;-82
2021/10/21 02:42:39;;;;;;;;;;;15.40;99.90;;;;;;6111923;23;19905;-79
2021/10/21 02:45:05;;;;;;;;;;;15.40;99.90;;;;;;6137263;23;19936;-79
2021/10/21 02:47:31;;;;;;;;;;;15.30;99.90;;;;;;6138239;23;19920;-80
2021/10/21 02:49:57;;;;;;;;;;;15.30;99.90;;;;;;6140360;23;19920;-79
2021/10/21 02:52:22;;;;;;;;;;;15.20;99.90;;;;;;6116301;23;19911;-79
2021/10/21 02:54:49;;;;;;;;;;;15.20;99.90;;;;;;6141199;23;19955;-82
2021/10/21 02:57:14;;;;;;;;;;;15.20;99.90;;;;;;6139265;23;19905;-79
2021/10/21 02:59:40;;;;;;;;;;;15.20;99.90;;;;;;6140364;23;19957;-79
2021/10/21 03:02:06;;;;;;;;;;;15.20;99.90;;;;;;6139021;23;19944;-79
2021/10/21 03:04:32;;;;;;;;;;;15.10;99.90;;;;;;6141011;23;19905;-82
2021/10/21 03:06:57;;;;;;;;;;;15.10;99.90;;;;;;6140696;23;19948;-79
2021/10/21 03:09:23;;;;;;;;;;;15.20;99.90;;;;;;6139539;23;19909;-79
2021/10/21 03:11:49;;;;;;;;;;;15.20;99.90;;;;;;6140162;23;19909;-79
2021/10/21 03:14:14;;;;;;;;;;;15.20;99.90;;;;;;6139260;23;19916;-78
2021/10/21 03:16:51;;;;;;;;;;;15.20;99.90;;;;;;6140566;23;19906;-80
2021/10/21 03:19:16;;;;;;;;;;;15.20;99.90;;;;;;6138363;23;19909;-79
2021/10/21 03:21:42;;;;;;;;;;;15.20;99.90;;;;;;6114761;23;19905;-79
2021/10/21 03:24:07;;;;;;;;;;;15.30;99.90;;;;;;6140944;23;20326;-79
2021/10/21 03:26:33;;;;;;;;;;;15.30;99.90;;;;;;6139663;23;19936;-80
2021/10/21 03:28:59;;;;;;;;;;;15.40;99.90;;;;;;6138591;23;19909;-79
2021/10/21 03:31:29;;;;;;;;;;;15.40;99.90;;;;;;6113685;23;19905;-80
2021/10/21 03:33:58;;;;;;;;;;;15.40;99.90;;;;;;6139157;23;19909;-79
2021/10/21 03:36:24;;;;;;;;;;;15.40;99.90;;;;;;6137854;23;19913;-79
2021/10/21 03:38:50;;;;;;;;;;;15.50;99.90;;;;;;6136834;23;19961;-79
2021/10/21 03:41:16;;;;;;;;;;;15.50;99.90;;;;;;6109446;23;20038;-78
2021/10/21 03:43:42;;;;;;;;;;;15.50;99.90;;;;;;6135223;23;19974;-80
2021/10/21 03:46:08;;;;;;;;;;;15.40;99.90;;;;;;6136459;23;19937;-79
2021/10/21 03:48:33;;;;;;;;;;;15.30;99.90;;;;;;6137215;23;19909;-79
2021/10/21 03:50:59;;;;;;;;;;;15.30;99.90;;;;;;6137742;23;19905;-82
2021/10/21 03:53:25;;;;;;;;;;;15.10;99.90;;;;;;6137551;23;19912;-79
2021/10/21 03:55:54;;;;;;;;;;;15.20;99.90;;;;;;6137670;23;19944;-78
2021/10/21 03:58:22;;;;;;;;;;;15.10;99.90;;;;;;6136590;23;19917;-78
2021/10/21 04:00:48;;;;;;;;;;;15.10;99.90;;;;;;6136097;23;19909;-78
2021/10/21 04:03:14;;;;;;;;;;;15.00;99.90;;;;;;6137598;23;19929;-79
2021/10/21 04:05:40;;;;;;;;;;;14.90;99.90;;;;;;6136757;23;19905;-78
2021/10/21 04:08:06;;;;;;;;;;;14.90;99.90;;;;;;6137705;23;19932;-78
2021/10/21 04:10:31;;;;;;;;;;;15.00;99.90;;;;;;6136520;23;19912;-79
2021/10/21 04:12:57;;;;;;;;;;;15.10;99.90;;;;;;6109482;23;19913;-79
2021/10/21 04:15:25;;;;;;;;;;;15.10;99.90;;;;;;6110773;23;19936;-79
2021/10/21 04:17:52;;;;;;;;;;;15.10;99.90;;;;;;6136183;23;19905;-79
2021/10/21 04:20:18;;;;;;;;;;;15.00;99.90;;;;;;6110570;23;19905;-79
2021/10/21 04:22:43;;;;;;;;;;;15.00;99.90;;;;;;6137440;23;20248;-79
2021/10/21 04:25:09;;;;;;;;;;;15.10;99.90;;;;;;6111603;23;19956;-79
2021/10/21 04:27:35;;;;;;;;;;;15.20;99.90;;;;;;6133080;23;19909;-79
2021/10/21 04:30:01;;;;;;;;;;;15.20;99.90;;;;;;6129677;23;19912;-80
2021/10/21 04:32:26;;;;;;;;;;;15.20;99.90;;;;;;6134458;23;19909;-79
2021/10/21 04:34:52;;;;;;;;;;;15.10;99.90;;;;;;6135672;23;19905;-79
2021/10/21 04:37:18;;;;;;;;;;;15.10;99.90;;;;;;6136012;23;19920;-79
2021/10/21 04:39:43;;;;;;;;;;;15.10;99.90;;;;;;6137703;23;20277;-79
2021/10/21 04:42:09;;;;;;;;;;;15.10;99.90;;;;;;6137153;23;19936;-79
2021/10/21 04:44:35;;;;;;;;;;;15.10;99.90;;;;;;6137192;23;19932;-79
2021/10/21 04:47:00;;;;;;;;;;;15.10;99.90;;;;;;6137423;23;20012;-79
2021/10/21 04:49:26;;;;;;;;;;;15.10;99.90;;;;;;6136681;23;19909;-78
2021/10/21 04:51:52;;;;;;;;;;;15.20;99.90;;;;;;6111291;23;20316;-82
2021/10/21 04:54:17;;;;;;;;;;;15.20;99.90;;;;;;6136055;23;19904;-80
2021/10/21 04:56:44;;;;;;;;;;;15.30;99.90;;;;;;6137028;23;19905;-79
2021/10/21 04:59:10;;;;;;;;;;;15.30;99.90;;;;;;6136681;23;19979;-79
2021/10/21 05:01:35;;;;;;;;;;;15.40;99.90;;;;;;6111363;23;19905;-80
2021/10/21 05:04:01;;;;;;;;;;;15.30;99.90;;;;;;6135922;23;19905;-81
2021/10/21 05:06:27;;;;;;;;;;;15.30;99.90;;;;;;6136054;23;19925;-79
2021/10/21 05:08:53;;;;;;;;;;;15.40;99.90;;;;;;6136222;23;20243;-79
2021/10/21 05:11:18;;;;;;;;;;;15.40;99.90;;;;;;6111712;23;19905;-79
2021/10/21 05:13:44;;;;;;;;;;;15.40;99.90;;;;;;6137916;23;19905;-78
2021/10/21 05:16:10;;;;;;;;;;;15.50;99.90;;;;;;6136075;23;19905;-79
2021/10/21 05:18:36;;;;;;;;;;;15.50;99.90;;;;;;6138955;23;19905;-79
2021/10/21 05:21:01;;;;;;;;;;;15.40;99.90;;;;;;6112191;23;19957;-78
2021/10/21 05:23:27;;;;;;;;;;;15.40;99.90;;;;;;6116756;23;19909;-78
2021/10/21 05:25:53;;;;;;;;;;;15.50;99.90;;;;;;6115334;23;19904;-78
2021/10/21 05:28:19;;;;;;;;;;;15.50;99.90;;;;;;6143455;23;19970;-78
2021/10/21 05:30:44;;;;;;;;;;;15.50;99.90;;;;;;6144744;23;19905;-78
2021/10/21 05:33:10;;;;;;;;;;;15.60;99.90;;;;;;6137231;23;19912;-78
2021/10/21 05:35:36;;;;;;;;;;;15.50;99.90;;;;;;6136725;23;19909;-81
2021/10/21 05:38:01;;;;;;;;;;;15.50;99.90;;;;;;6111548;23;19905;-79
2021/10/21 05:40:27;;;;;;;;;;;15.50;99.90;;;;;;6121186;23;19908;-78
2021/10/21 05:42:53;;;;;;;;;;;15.50;99.90;;;;;;6146559;23;19905;-78
2021/10/21 05:45:18;;;;;;;;;;;15.50;99.90;;;;;;6145850;23;19905;-78
2021/10/21 05:47:46;;;;;;;;;;;15.50;99.90;;;;;;6120745;23;19909;-77
2021/10/21 05:50:12;;;;;;;;;;;15.50;99.90;;;;;;6145062;23;19921;-78
2021/10/21 05:52:37;;;;;;;;;;;15.50;99.90;;;;;;6135586;23;19929;-79
2021/10/21 05:55:06;;;;;;;;;;;15.60;99.90;;;;;;6112412;23;19912;-79
2021/10/21 05:57:32;;;;;;;;;;;15.60;99.90;;;;;;6134624;23;19905;-79
2021/10/21 05:59:58;;;;;;;;;;;15.60;99.90;;;;;;6134733;23;20351;-78
2021/10/21 06:02:24;;;;;;;;;;;15.60;99.90;;;;;;6134742;23;20322;-79
2021/10/21 06:04:49;;;;;;;;;;;15.70;99.90;;;;;;6109656;23;19920;-80
2021/10/21 06:07:15;;;;;;;;;;;15.70;99.90;;;;;;6137028;23;20245;-79
2021/10/21 06:09:41;;;;;;;;;;;15.80;99.90;;;;;;6137446;23;20248;-79
2021/10/21 06:12:08;;;;;;;;;;;15.80;99.90;;;;;;6141004;23;19904;-79
2021/10/21 06:14:34;;;;;;;;;;;15.90;99.90;;;;;;6142343;23;19921;-79
2021/10/21 06:17:00;;;;;;;;;;;15.90;99.90;;;;;;6141375;23;19943;-79
2021/10/21 06:19:26;;;;;;;;;;;15.90;99.90;;;;;;6139121;23;19905;-79
2021/10/21 06:22:00;;;;;;;;;;;16.00;99.90;;;;;;6139646;23;19912;-79
2021/10/21 06:24:26;;;;;;;;;;;15.90;99.90;;;;;;6140422;23;19935;-80
2021/10/21 06:26:52;;;;;;;;;;;15.90;99.90;;;;;;6111790;23;19905;-78
2021/10/21 06:29:18;;;;;;;;;;;16.00;99.90;;;;;;6138796;23;19905;-78
2021/10/21 06:31:46;;;;;;;;;;;16.00;99.90;;;;;;6140604;23;19912;-79
2021/10/21 06:34:12;;;;;;;;;;;16.00;99.90;;;;;;6111729;23;19988;-79
2021/10/21 06:36:38;;;;;;;;;;;16.00;99.90;;;;;;6138753;23;19913;-79
2021/10/21 06:39:04;;;;;;;;;;;16.00;99.90;;;;;;6139715;23;19987;-79
2021/10/21 06:41:30;;;;;;;;;;;16.00;99.90;;;;;;6138163;23;20289;-79
2021/10/21 06:43:56;;;;;;;;;;;16.10;99.90;;;;;;6112696;23;19905;-79
2021/10/21 06:46:22;;;;;;;;;;;16.10;99.90;;;;;;6139271;23;19984;-79
2021/10/21 06:48:48;;;;;;;;;;;16.20;99.90;;;;;;6113028;23;19960;-79
2021/10/21 06:51:14;;;;;;;;;;;16.20;99.90;;;;;;6137940;23;19929;-79
2021/10/21 06:53:39;;;;;;;;;;;16.30;99.90;;;;;;6130035;23;19988;-79
2021/10/21 06:56:05;;;;;;;;;;;16.30;99.90;;;;;;6132618;23;19997;-79
2021/10/21 06:58:33;;;;;;;;;;;16.30;99.90;;;;;;6136561;23;19912;-79
2021/10/21 07:00:58;;;;;;;;;;;16.20;99.90;;;;;;6111314;23;19905;-79
2021/10/21 07:03:24;;;;;;;;;;;16.20;99.90;;;;;;6137725;23;19951;-79
2021/10/21 07:05:53;;;;;;;;;;;16.40;99.90;;;;;;6136397;23;19909;-79
2021/10/21 07:08:20;;;;;;;;;;;16.40;99.90;;;;;;6111179;23;19912;-79
2021/10/21 07:10:46;;;;;;;;;;;16.30;99.90;;;;;;6138195;23;20290;-79
2021/10/21 07:13:12;;;;;;;;;;;16.40;99.90;;;;;;6113450;23;19912;-79
2021/10/21 07:15:37;;;;;;;;;;;16.40;99.90;;;;;;6139585;23;19905;-79
2021/10/21 07:18:03;;;;;;;;;;;16.40;99.90;;;;;;6110680;23;19920;-79
2021/10/21 07:20:29;;;;;;;;;;;16.50;99.90;;;;;;6137384;23;19952;-79
2021/10/21 07:22:55;;;;;;;;;;;16.50;99.90;;;;;;6136879;23;19912;-79
2021/10/21 07:25:22;;;;;;;;;;;16.60;99.90;;;;;;6136819;23;19905;-79
2021/10/21 07:27:48;;;;;;;;;;;16.70;99.90;;;;;;6110868;23;19913;-79
2021/10/21 07:30:14;;;;;;;;;;;16.60;99.90;;;;;;6110400;23;19905;-79
2021/10/21 07:32:40;;;;;;;;;;;16.60;99.90;;;;;;6137165;23;19953;-79
2021/10/21 07:35:06;;;;;;;;;;;16.70;99.90;;;;;;6144900;23;19944;-79
2021/10/21 07:37:32;;;;;;;;;;;16.70;99.90;;;;;;6143359;23;19908;-79
2021/10/21 07:39:57;;;;;;;;;;;16.70;99.90;;;;;;6119722;23;19905;-79
2021/10/21 07:42:23;;;;;;;;;;;16.80;99.90;;;;;;6144732;23;19912;-79
2021/10/21 07:44:49;;;;;;;;;;;16.80;99.90;;;;;;6145480;23;19909;-79
2021/10/21 07:47:14;;;;;;;;;;;16.90;99.90;;;;;;6144621;23;20392;-79
2021/10/21 07:49:41;;;;;;;;;;;16.90;99.90;;;;;;6142301;23;19909;-79
2021/10/21 07:52:07;;;;;;;;;;;17.00;99.90;;;;;;6113576;23;19973;-78
2021/10/21 07:54:32;;;;;;;;;;;17.00;99.90;;;;;;6139321;23;20474;-80
2021/10/21 07:56:58;;;;;;;;;;;17.00;99.90;;;;;;6137312;23;20248;-79
2021/10/21 07:59:27;;;;;;;;;;;17.00;99.90;;;;;;6138235;23;19905;-79
2021/10/21 08:01:56;;;;;;;;;;;17.00;99.90;;;;;;6137732;23;19908;-79
2021/10/21 08:04:22;;;;;;;;;;;17.00;99.90;;;;;;6138505;23;20081;-79
2021/10/21 08:06:49;;;;;;;;;;;17.00;99.90;;;;;;6138171;23;20269;-79
2021/10/21 08:09:15;;;;;;;;;;;17.00;99.90;;;;;;6139373;23;19983;-79
2021/10/21 08:11:41;;;;;;;;;;;17.00;99.90;;;;;;6140441;23;20353;-79
2021/10/21 08:14:07;;;;;;;;;;;17.00;99.90;;;;;;6140683;23;19909;-79
2021/10/21 08:16:33;;;;;;;;;;;17.10;99.90;;;;;;6142155;23;19950;-79
2021/10/21 08:18:59;;;;;;;;;;;17.00;99.90;;;;;;6138196;23;19940;-79
2021/10/21 08:21:47;;;;;;;;;;;17.00;99.90;;;;;;6138095;23;19911;-79
2021/10/21 08:24:14;;;;;;;;;;;17.00;99.90;;;;;;6139221;23;19924;-79
2021/10/21 08:26:41;;;;;;;;;;;17.00;99.90;;;;;;6138866;23;19905;-79
2021/10/21 08:29:07;;;;;;;;;;;17.00;99.90;;;;;;6136963;23;19977;-79
2021/10/21 08:31:33;;;;;;;;;;;17.10;99.90;;;;;;6112128;23;19905;-79
2021/10/21 08:33:59;;;;;;;;;;;17.10;99.90;;;;;;6111842;23;19945;-79
2021/10/21 08:36:24;;;;;;;;;;;17.10;99.90;;;;;;6136242;23;19913;-80
2021/10/21 08:38:50;;;;;;;;;;;17.10;99.90;;;;;;6130451;23;19935;-72
2021/10/21 08:41:17;;;;;;;;;;;17.10;99.90;;;;;;6128724;23;19991;-72
2021/10/21 08:43:43;;;;;;;;;;;17.10;99.90;;;;;;6128361;23;19961;-73
2021/10/21 08:46:10;;;;;;;;;;;17.10;99.90;;;;;;6127936;23;19948;-72
2021/10/21 08:48:37;;;;;;;;;;;17.10;99.90;;;;;;6127418;23;20123;-76
2021/10/21 08:51:05;;;;;;;;;;;17.20;99.90;;;;;;6127319;23;20296;-72
2021/10/21 08:53:31;;;;;;;;;;;17.20;99.90;;;;;;6127639;23;19912;-75
2021/10/21 08:55:57;;;;;;;;;;;17.20;99.90;;;;;;6127107;23;19909;-72
2021/10/21 08:58:25;;;;;;;;;;;17.20;99.90;;;;;;6126581;23;19951;-72
2021/10/21 09:00:56;;;;;;;;;;;17.30;99.90;;;;;;6127862;23;20035;-72
2021/10/21 09:03:42;;;;;;;;;;;17.20;99.90;;;;;;6128712;23;19909;-75
2021/10/21 09:06:31;;;;;;;;;;;17.20;99.90;;;;;;6127933;23;19950;-73
2021/10/21 09:08:58;;;;;;;;;;;17.30;99.90;;;;;;6128530;23;19916;-75
2021/10/21 09:11:23;;;;;;;;;;;17.30;99.90;;;;;;6126728;23;20245;-72
2021/10/21 09:14:08;;;;;;;;;;;17.30;99.90;;;;;;6126847;23;19937;-73
2021/10/21 09:16:34;;;;;;;;;;;17.30;99.90;;;;;;6128477;23;19911;-72
2021/10/21 09:19:05;;;;;;;;;;;17.30;99.90;;;;;;6101762;23;19933;-73
2021/10/21 09:21:38;;;;;;;;;;;17.40;99.90;;;;;;6102837;23;19912;-72
2021/10/21 09:24:22;;;;;;;;;;;17.40;99.90;;;;;;6102011;23;19909;-72
2021/10/21 09:26:58;;;;;;;;;;;17.40;99.90;;;;;;6128212;23;19909;-71
2021/10/21 09:29:24;;;;;;;;;;;17.40;99.90;;;;;;6127634;23;19953;-72
2021/10/21 09:32:08;;;;;;;;;;;17.50;99.90;;;;;;6127459;23;19987;-72
2021/10/21 09:35:01;;;;;;;;;;;17.40;99.90;;;;;;6126646;23;19905;-72
2021/10/21 09:37:31;;;;;;;;;;;17.40;99.90;;;;;;6123870;23;19913;-72
2021/10/21 09:39:58;;;;;;;;;;;17.40;99.90;;;;;;6101968;23;19916;-71
2021/10/21 09:42:31;;;;;;;;;;;17.40;99.90;;;;;;6127424;23;20288;-73
2021/10/21 09:45:09;;;;;;;;;;;17.50;99.90;;;;;;6126892;23;19909;-73
2021/10/21 09:47:36;;;;;;;;;;;17.50;99.90;;;;;;6125482;23;20276;-73
2021/10/21 09:50:14;;;;;;;;;;;17.50;99.90;;;;;;6126936;23;20245;-73
2021/10/21 09:52:40;;;;;;;;;;;17.50;99.90;;;;;;6127352;23;19908;-73
2021/10/21 09:55:09;;;;;;;;;;;17.60;99.90;;;;;;6126711;23;19912;-73
2021/10/21 09:57:34;;;;;;;;;;;17.70;99.90;;;;;;6126284;23;19905;-73
2021/10/21 10:00:04;;;;;;;;;;;17.60;99.90;;;;;;6126875;23;19983;-73
2021/10/21 10:02:32;;;;;;;;;;;17.60;99.90;;;;;;6126495;23;19905;-73
2021/10/21 10:05:01;;;;;;;;;;;17.70;99.90;;;;;;6100538;23;20237;-73
2021/10/21 10:07:27;;;;;;;;;;;17.70;99.90;;;;;;6127438;23;19917;-73
2021/10/21 10:09:58;;;;;;;;;;;17.70;99.90;;;;;;6127218;23;19905;-73
2021/10/21 10:12:24;;;;;;;;;;;17.60;99.90;;;;;;6126795;23;19912;-73
2021/10/21 10:14:50;;;;;;;;;;;17.60;99.90;;;;;;6126887;23;19905;-73
2021/10/21 10:17:16;;;;;;;;;;;17.60;99.90;;;;;;6125160;23;19931;-73
2021/10/21 10:19:46;;;;;;;;;;;17.70;99.90;;;;;;6124755;23;20396;-74
2021/10/21 10:22:24;;;;;;;;;;;17.60;99.90;;;;;;6098700;23;20340;-73
2021/10/21 10:24:50;;;;;;;;;;;17.70;99.90;;;;;;6125253;23;19905;-73
2021/10/21 10:27:20;;;;;;;;;;;17.70;99.90;;;;;;6124852;23;19916;-72
2021/10/21 10:29:47;;;;;;;;;;;17.70;99.90;;;;;;6125658;23;20301;-73
2021/10/21 10:32:29;;;;;;;;;;;17.70;99.90;;;;;;6125540;23;19904;-75
2021/10/21 10:34:55;;;;;;;;;;;17.90;99.90;;;;;;6126225;23;19912;-73
2021/10/21 10:37:21;;;;;;;;;;;17.90;99.90;;;;;;6125507;23;19913;-73
2021/10/21 10:39:51;;;;;;;;;;;17.90;99.90;;;;;;6126623;23;19909;-76
2021/10/21 10:42:38;;;;;;;;;;;17.90;99.90;;;;;;6099971;23;19909;-72
2021/10/21 10:45:05;;;;;;;;;;;18.00;99.90;;;;;;6110613;23;19905;-74
2021/10/21 10:47:44;;;;;;;;;;;18.10;99.90;;;;;;6125320;23;19909;-72
2021/10/21 10:50:17;;;;;;;;;;;18.00;99.90;;;;;;6125059;23;19928;-73
2021/10/21 10:52:58;;;;;;;;;;;18.00;99.90;;;;;;6126381;23;19905;-73
2021/10/21 10:55:25;;;;;;;;;;;18.00;99.90;;;;;;6126539;23;19932;-73
2021/10/21 10:57:58;;;;;;;;;;;18.00;99.90;;;;;;6099650;23;19909;-74
2021/10/21 11:00:39;;;;;;;;;;;17.90;99.90;;;;;;6126032;23;19990;-73
2021/10/21 11:03:06;;;;;;;;;;;17.90;99.90;;;;;;6126945;23;20162;-73
2021/10/21 11:05:58;;;;;;;;;;;17.80;99.90;;;;;;6126201;23;19916;-73
2021/10/21 11:08:42;;;;;;;;;;;17.80;99.90;;;;;;6123042;23;20241;-74
2021/10/21 11:11:08;;;;;;;;;;;17.90;99.90;;;;;;6128416;23;19956;-73
2021/10/21 11:13:33;;;;;;;;;;;17.90;99.90;;;;;;6128683;23;19905;-73
2021/10/21 11:15:59;;;;;;;;;;;17.80;99.90;;;;;;6128204;23;19979;-73
2021/10/21 11:18:31;;;;;;;;;;;17.90;99.90;;;;;;6128545;23;20288;-73
2021/10/21 11:20:58;;;;;;;;;;;17.80;99.90;;;;;;6128090;23;19909;-73
2021/10/21 11:23:26;;;;;;;;;;;17.80;99.90;;;;;;6128436;23;19905;-73
2021/10/21 11:26:00;;;;;;;;;;;17.80;99.90;;;;;;6126415;23;19905;-73
2021/10/21 11:28:26;;;;;;;;;;;17.90;99.90;;;;;;6128520;23;19924;-72
2021/10/21 11:30:51;;;;;;;;;;;17.80;99.90;;;;;;6126331;23;19958;-72
2021/10/21 11:33:18;;;;;;;;;;;17.80;99.90;;;;;;6126021;23;19909;-73
2021/10/21 11:35:44;;;;;;;;;;;17.90;99.90;;;;;;6128473;23;19929;-74
2021/10/21 11:38:14;;;;;;;;;;;17.80;99.90;;;;;;6128389;23;19905;-73
2021/10/21 11:40:47;;;;;;;;;;;17.70;99.90;;;;;;6128710;23;19904;-73
2021/10/21 11:43:36;;;;;;;;;;;17.70;99.90;;;;;;6129086;23;20274;-73
2021/10/21 11:46:04;;;;;;;;;;;17.70;99.90;;;;;;6128157;23;19908;-73
2021/10/21 11:48:32;;;;;;;;;;;17.60;99.90;;;;;;6102611;23;20273;-73
2021/10/21 11:50:58;;;;;;;;;;;17.60;99.90;;;;;;6128261;23;19924;-73
2021/10/21 11:53:26;;;;;;;;;;;17.50;99.90;;;;;;6128568;23;19912;-73
2021/10/21 11:55:55;;;;;;;;;;;17.50;99.90;;;;;;6128289;23;19915;-73
2021/10/21 11:58:25;;;;;;;;;;;17.60;99.90;;;;;;6127844;23;20389;-72
2021/10/21 12:01:11;;;;;;;;;;;17.60;99.90;;;;;;6127644;23;19905;-73
2021/10/21 12:03:41;;;;;;;;;;;17.60;99.90;;;;;;6127717;23;20019;-73
2021/10/21 12:06:08;;;;;;;;;;;17.50;99.90;;;;;;6128074;23;19913;-73
2021/10/21 12:08:34;;;;;;;;;;;17.50;99.90;;;;;;6128205;23;19909;-73
2021/10/21 12:11:01;;;;;;;;;;;17.50;99.90;;;;;;6128261;23;19912;-74
2021/10/21 12:13:32;;;;;;;;;;;17.50;99.90;;;;;;6128429;23;19932;-73
2021/10/21 12:15:58;;;;;;;;;;;17.50;99.90;;;;;;6128007;23;20217;-73
2021/10/21 12:18:26;;;;;;;;;;;17.50;99.90;;;;;;6127894;23;20241;-73
2021/10/21 12:20:53;;;;;;;;;;;17.50;99.90;;;;;;6128339;23;19916;-73
2021/10/21 12:23:27;;;;;;;;;;;17.50;99.90;;;;;;6127459;23;19905;-74
2021/10/21 12:26:01;;;;;;;;;;;17.50;99.90;;;;;;6128170;23;19988;-73
2021/10/21 12:28:37;;;;;;;;;;;17.40;99.90;;;;;;6127601;23;19944;-72
2021/10/21 12:31:20;;;;;;;;;;;17.30;99.90;;;;;;6128055;23;19905;-73
2021/10/21 12:33:58;;;;;;;;;;;17.30;99.90;;;;;;6127454;23;19912;-72
2021/10/21 12:36:25;;;;;;;;;;;17.20;99.90;;;;;;6127717;23;19920;-74
2021/10/21 12:38:53;;;;;;;;;;;17.30;99.90;;;;;;6127670;23;19909;-73
2021/10/21 12:41:22;;;;;;;;;;;17.30;99.90;;;;;;6101804;23;19905;-73
2021/10/21 12:43:58;;;;;;;;;;;17.30;99.90;;;;;;6126549;23;19909;-73
2021/10/21 12:46:25;;;;;;;;;;;17.30;99.90;;;;;;6102447;23;19987;-73
2021/10/21 12:49:06;;;;;;;;;;;17.20;99.90;;;;;;6127771;23;19920;-76
2021/10/21 12:51:32;;;;;;;;;;;17.20;99.90;;;;;;6128987;23;19905;-73
2021/10/21 12:53:58;;;;;;;;;;;17.10;99.90;;;;;;6128510;23;19911;-73
2021/10/21 12:56:25;;;;;;;;;;;17.10;99.90;;;;;;6128921;23;20270;-74
2021/10/21 12:59:01;;;;;;;;;;;17.00;99.90;;;;;;6129173;23;19955;-73
2021/10/21 13:01:26;;;;;;;;;;;16.90;99.90;;;;;;6103094;23;19909;-73
2021/10/21 13:04:00;;;;;;;;;;;16.80;99.90;;;;;;6128848;23;20240;-73
2021/10/21 13:06:26;;;;;;;;;;;16.80;99.90;;;;;;6128922;23;19905;-72
2021/10/21 13:08:51;;;;;;;;;;;16.70;99.90;;;;;;6127544;23;19909;-73
2021/10/21 13:11:20;;;;;;;;;;;16.70;99.90;;;;;;6128452;23;19916;-73
2021/10/21 13:13:51;;;;;;;;;;;16.60;99.90;;;;;;6128328;23;19983;-73
2021/10/21 13:16:16;;;;;;;;;;;16.70;99.90;;;;;;6128700;23;19960;-73
2021/10/21 13:18:42;;;;;;;;;;;16.60;99.90;;;;;;6128631;23;20321;-74
2021/10/21 13:21:08;;;;;;;;;;;16.50;99.90;;;;;;6127862;23;19905;-74
2021/10/21 13:23:34;;;;;;;;;;;16.50;99.90;;;;;;6126626;23;20245;-73
2021/10/21 13:26:00;;;;;;;;;;;16.40;99.90;;;;;;6126310;23;19964;-73
2021/10/21 13:28:26;;;;;;;;;;;16.40;99.90;;;;;;6126346;23;19913;-73
2021/10/21 13:30:52;;;;;;;;;;;16.40;99.90;;;;;;6100736;23;19976;-73
2021/10/21 13:33:18;;;;;;;;;;;16.40;99.90;;;;;;6128037;23;19909;-74
2021/10/21 13:35:44;;;;;;;;;;;16.40;99.90;;;;;;6101906;23;20334;-75
2021/10/21 13:38:13;;;;;;;;;;;16.30;99.90;;;;;;6127571;23;19905;-73
2021/10/21 13:40:39;;;;;;;;;;;16.30;99.90;;;;;;6101885;23;20001;-73
2021/10/21 13:43:05;;;;;;;;;;;16.20;99.90;;;;;;6128519;23;20318;-73
2021/10/21 13:45:30;;;;;;;;;;;16.20;99.90;;;;;;6128481;23;19905;-73
2021/10/21 13:47:56;;;;;;;;;;;16.20;99.90;;;;;;6126416;23;20210;-72
2021/10/21 13:50:22;;;;;;;;;;;16.20;99.90;;;;;;6128091;23;19905;-73
2021/10/21 13:52:48;;;;;;;;;;;16.20;99.90;;;;;;6126877;23;20281;-73
2021/10/21 13:55:13;;;;;;;;;;;16.30;99.90;;;;;;6125248;23;19912;-74
2021/10/21 13:57:39;;;;;;;;;;;16.30;99.90;;;;;;6125894;23;19940;-73
2021/10/21 14:00:08;;;;;;;;;;;16.30;99.90;;;;;;6126847;23;20258;-73
2021/10/21 14:02:34;;;;;;;;;;;16.30;99.90;;;;;;6101246;23;19960;-73
2021/10/21 14:05:00;;;;;;;;;;;16.40;99.90;;;;;;6127125;23;19909;-73
2021/10/21 14:07:26;;;;;;;;;;;16.40;99.90;;;;;;6127128;23;19949;-73
2021/10/21 14:09:52;;;;;;;;;;;16.50;99.90;;;;;;6126798;23;19913;-75
2021/10/21 14:12:18;;;;;;;;;;;16.50;99.90;;;;;;6126930;23;19905;-77
2021/10/21 14:14:45;;;;;;;;;;;16.50;99.90;;;;;;6101156;23;19905;-75
2021/10/21 14:17:14;;;;;;;;;;;16.60;99.90;;;;;;6127435;23;20030;-74
2021/10/21 14:19:39;;;;;;;;;;;16.70;99.90;;;;;;6126806;23;19905;-74